Time;durP1;ratioP1;P1;durP2;ratioP2;P2;SDS_P1;SDS_P2;PMS_P1;PMS_P2;Temp;Humidity;BMP_temperature;BMP_pressure;BME280_temperature;BME280_humidity;BME280_pressure;Samples;Min_cycle;Max_cycle;Signal;HPM_P1;HPM_P2
2022/06/16 00:01:59;;;;;;;8.70;7.80;;;;;;;11.45;73.40;97801.48;110315;1247;70750;-69
2022/06/16 00:04:30;;;;;;;8.40;7.50;;;;;;;11.42;73.35;97803.92;110042;1247;67782;-69
2022/06/16 00:07:01;;;;;;;9.10;6.80;;;;;;;11.38;73.81;97802.14;110360;1246;68729;-71
2022/06/16 00:09:30;;;;;;;10.20;7.50;;;;;;;11.34;74.33;97803.48;110043;1247;59000;-71
2022/06/16 00:12:00;;;;;;;7.90;7.10;;;;;;;11.29;74.16;97803.63;110296;1246;58874;-67
2022/06/16 00:14:29;;;;;;;7.70;6.30;;;;;;;11.25;74.45;97808.11;110222;1247;69790;-75
2022/06/16 00:16:59;;;;;;;9.20;8.30;;;;;;;11.22;74.46;97804.66;110224;1247;67785;-72
2022/06/16 00:19:28;;;;;;;10.30;7.80;;;;;;;11.19;74.51;97801.86;110200;1247;69190;-72
2022/06/16 00:21:58;;;;;;;9.60;7.70;;;;;;;11.17;74.23;97802.71;110241;1247;59295;-71
2022/06/16 00:24:29;;;;;;;10.30;7.70;;;;;;;11.15;75.23;97803.41;110038;1247;58861;-72
2022/06/16 00:26:59;;;;;;;8.70;7.30;;;;;;;11.10;74.27;97799.38;110150;1247;69979;-69
2022/06/16 00:29:30;;;;;;;11.40;7.70;;;;;;;11.02;75.09;97802.56;110326;1246;67641;-72
2022/06/16 00:32:03;;;;;;;9.20;7.80;;;;;;;10.91;77.40;97806.61;110287;1247;68945;-71
2022/06/16 00:34:33;;;;;;;10.50;8.00;;;;;;;10.85;76.80;97807.38;110228;1247;58929;-72
2022/06/16 00:37:05;;;;;;;9.90;8.10;;;;;;;10.77;77.83;97809.83;110234;1247;58970;-71
2022/06/16 00:39:35;;;;;;;10.90;7.40;;;;;;;10.71;78.15;97809.90;110209;1247;70711;-72
2022/06/16 00:42:22;;;;;;;9.00;6.60;;;;;;;10.66;75.85;97805.98;110234;1247;68682;-70
2022/06/16 00:44:57;;;;;;;8.80;6.80;;;;;;;10.61;75.50;97808.23;109986;1250;68860;-68
2022/06/16 00:47:30;;;;;;;8.50;6.60;;;;;;;10.58;74.43;97816.11;110247;1246;58989;-69
2022/06/16 00:50:05;;;;;;;8.60;6.80;;;;;;;10.55;73.86;97814.09;110271;1247;58807;-69
2022/06/16 00:52:34;;;;;;;8.90;6.50;;;;;;;10.51;74.41;97813.13;110195;1247;70757;-71
2022/06/16 00:55:15;;;;;;;10.10;6.50;;;;;;;10.47;73.41;97813.73;110252;1247;67650;-73
2022/06/16 00:57:50;;;;;;;8.80;7.90;;;;;;;10.41;74.50;97813.11;110254;1246;68607;-71
2022/06/16 01:02:59;;;;;;;9.90;7.40;;;;;;;10.27;74.03;97816.10;110269;1247;58884;-70
2022/06/16 01:05:30;;;;;;;10.20;7.60;;;;;;;10.20;74.92;97812.66;110241;1246;69971;-72
2022/06/16 01:08:01;;;;;;;7.20;6.40;;;;;;;10.15;74.45;97812.85;110276;1247;67914;-69
2022/06/16 01:10:42;;;;;;;7.70;6.10;;;;;;;10.09;74.20;97812.84;110227;1247;68714;-70
2022/06/16 01:13:43;;;;;;;7.40;5.70;;;;;;;10.05;73.60;97808.27;110068;1247;58883;-73
2022/06/16 01:16:19;;;;;;;;;;;;;;;9.98;74.09;97807.28;110266;1247;58961;-71
2022/06/16 01:19:07;;;;;;;10.10;7.10;;;;;;;9.90;74.49;97802.21;110249;1247;70708;-71
2022/06/16 01:21:46;;;;;;;8.90;8.00;;;;;;;9.82;75.21;97801.56;110194;1247;67602;-71
2022/06/16 01:24:38;;;;;;;10.30;8.40;;;;;;;9.73;75.35;97799.31;110250;1246;68643;-69
2022/06/16 01:27:25;;;;;;;10.60;7.50;;;;;;;9.68;75.52;97797.39;110122;1247;58898;-75
2022/06/16 01:30:08;;;;;;;8.00;6.80;;;;;;;9.62;75.58;97795.45;110426;1248;58867;-70
2022/06/16 01:32:53;;;;;;;8.10;6.90;;;;;;;9.56;76.22;97797.80;110097;1248;70101;-72
2022/06/16 01:35:34;;;;;;;8.70;7.50;;;;;;;9.50;76.13;97801.48;110181;1247;68595;-69
2022/06/16 01:38:30;;;;;;;9.10;8.10;;;;;;;9.45;76.78;97801.24;110203;1246;68613;-72
2022/06/16 01:41:24;;;;;;;10.40;9.30;;;;;;;9.42;79.28;97801.09;110243;1247;58900;-72
2022/06/16 01:44:12;;;;;;;9.00;7.70;;;;;;;9.39;79.31;97796.40;110123;1247;58887;-70
2022/06/16 01:46:51;;;;;;;10.70;6.80;;;;;;;9.37;78.46;97793.21;109965;1248;69877;-74
2022/06/16 01:49:33;;;;;;;9.30;7.60;;;;;;;9.34;78.13;97791.49;110230;1247;67718;-69
2022/06/16 01:52:18;;;;;;;8.70;7.70;;;;;;;9.32;80.75;97794.56;110056;1248;69614;-72
2022/06/16 01:54:55;;;;;;;8.30;7.40;;;;;;;9.31;82.13;97793.27;109962;1247;58873;-75
2022/06/16 01:57:42;;;;;;;8.60;5.60;;;;;;;9.27;79.90;97792.42;110118;1247;58905;-71
2022/06/16 02:00:18;;;;;;;9.30;7.80;;;;;;;9.24;80.82;97797.69;110133;1247;69887;-71
2022/06/16 02:03:29;;;;;;;8.70;7.70;;;;;;;9.19;82.05;97797.46;110284;1247;68562;-73
2022/06/16 02:06:23;;;;;;;9.20;7.80;;;;;;;9.14;82.11;97796.73;110071;1247;69240;-72
2022/06/16 02:09:06;;;;;;;9.60;7.40;;;;;;;9.11;80.76;97798.64;110012;1247;58951;-70
2022/06/16 02:11:38;;;;;;;10.10;8.60;;;;;;;9.07;81.31;97801.98;110199;1247;58877;-73
2022/06/16 02:14:28;;;;;;;12.00;10.20;;;;;;;9.04;82.45;97803.58;110240;1247;70172;-72
2022/06/16 02:17:04;;;;;;;8.40;7.60;;;;;;;8.98;82.28;97801.15;110535;1247;66767;-71
2022/06/16 02:19:35;;;;;;;12.60;10.90;;;;;;;8.94;82.79;97801.05;110113;1247;69232;-69
2022/06/16 02:22:05;;;;;;;12.20;9.90;;;;;;;8.92;83.18;97800.52;110187;1248;58935;-72
2022/06/16 02:24:36;;;;;;;9.60;8.50;;;;;;;8.88;82.34;97797.05;110077;1247;58877;-72
2022/06/16 02:27:07;;;;;;;8.90;8.10;;;;;;;8.86;81.95;97800.13;110087;1247;69837;-74
2022/06/16 02:29:39;;;;;;;8.60;7.40;;;;;;;8.83;81.83;97798.27;110210;1247;68408;-70
2022/06/16 02:32:24;;;;;;;10.00;7.70;;;;;;;8.80;82.76;97799.80;110200;1247;69444;-69
2022/06/16 02:35:24;;;;;;;10.00;8.50;;;;;;;8.78;83.14;97800.64;110214;1247;59031;-74
2022/06/16 02:38:25;;;;;;;9.20;8.20;;;;;;;8.74;82.67;97801.36;110191;1246;58843;-72
2022/06/16 02:41:07;;;;;;;10.60;9.50;;;;;;;8.70;83.97;97798.69;110256;1247;70789;-72
2022/06/16 02:44:11;;;;;;;11.20;9.60;;;;;;;8.67;83.81;97802.29;110235;1247;67980;-74
2022/06/16 02:47:02;;;;;;;8.90;7.80;;;;;;;8.65;83.41;97803.98;110016;1250;69228;-71
2022/06/16 02:49:49;;;;;;;9.70;8.20;;;;;;;8.61;81.24;97806.83;110352;1247;59271;-73
2022/06/16 02:52:40;;;;;;;9.90;8.50;;;;;;;8.56;80.75;97814.79;110185;1247;58893;-74
2022/06/16 02:55:30;;;;;;;10.00;9.00;;;;;;;8.51;82.94;97815.75;110143;1248;70159;-72
2022/06/16 02:58:01;;;;;;;10.30;8.20;;;;;;;8.49;80.82;97813.83;110111;1247;68423;-75
2022/06/16 03:00:48;;;;;;;10.10;9.00;;;;;;;8.46;81.53;97818.48;110011;1248;69788;-71
2022/06/16 03:03:30;;;;;;;9.10;7.70;;;;;;;8.45;82.67;97816.11;109999;1248;58959;-70
2022/06/16 03:06:11;;;;;;;12.20;8.80;;;;;;;8.44;81.20;97815.48;109942;1248;58894;-73
2022/06/16 03:08:49;;;;;;;12.70;9.40;;;;;;;8.45;83.92;97817.17;110210;1247;70540;-72
2022/06/16 03:11:19;;;;;;;16.20;10.90;;;;;;;8.47;84.08;97817.39;110091;1248;67432;-74
2022/06/16 03:13:48;;;;;;;12.20;10.90;;;;;;;8.52;83.60;97819.55;110124;1246;69234;-72
2022/06/16 03:16:28;;;;;;;11.50;9.60;;;;;;;8.56;84.48;97819.95;110146;1248;58961;-72
2022/06/16 03:18:57;;;;;;;11.10;9.00;;;;;;;8.62;84.74;97817.91;110062;1250;58941;-70
2022/06/16 03:21:28;;;;;;;9.90;8.90;;;;;;;8.66;84.03;97813.98;110250;1247;70012;-70
2022/06/16 03:23:58;;;;;;;;;;;;;;;8.76;85.54;97811.17;110242;1247;67770;-70
2022/06/16 03:26:29;;;;;;;9.60;8.60;;;;;;;8.82;84.80;97810.82;110365;1247;68454;-75
2022/06/16 03:28:59;;;;;;;9.50;8.10;;;;;;;8.85;84.21;97808.71;110300;1248;58944;-71
2022/06/16 03:31:30;;;;;;;11.00;8.70;;;;;;;8.87;83.80;97808.61;110290;1247;58901;-72
2022/06/16 03:34:01;;;;;;;9.10;8.20;;;;;;;8.90;82.36;97807.20;110159;1245;69830;-71
2022/06/16 03:36:37;;;;;;;10.10;7.70;;;;;;;8.97;82.92;97806.11;110476;1247;67800;-70
2022/06/16 03:39:10;;;;;;;10.60;8.00;;;;;;;9.03;83.29;97806.27;110071;1248;69317;-68
2022/06/16 03:41:48;;;;;;;11.10;9.70;;;;;;;9.11;83.44;97805.94;110172;1247;59664;-79
2022/06/16 03:44:18;;;;;;;10.30;8.80;;;;;;;9.20;84.11;97805.25;110145;1248;59729;-71
2022/06/16 03:46:48;;;;;;;10.10;9.00;;;;;;;9.28;83.94;97808.55;110300;1247;70893;-80
2022/06/16 03:49:23;;;;;;;10.10;9.10;;;;;;;9.38;84.50;97808.84;110199;1247;68575;-77
2022/06/16 03:51:52;;;;;;;10.20;8.60;;;;;;;9.47;83.73;97811.08;110011;1248;68506;-75
2022/06/16 03:54:32;;;;;;;9.00;8.10;;;;;;;9.54;82.66;97810.23;110216;1248;59691;-82
2022/06/16 03:57:04;;;;;;;10.00;8.30;;;;;;;9.60;82.34;97809.00;110272;1247;59683;-76
2022/06/16 03:59:34;;;;;;;9.90;8.40;;;;;;;9.66;82.09;97810.39;110042;1247;70707;-79
2022/06/16 04:02:11;;;;;;;11.00;7.70;;;;;;;9.75;82.03;97809.14;110196;1247;67484;-80
2022/06/16 04:04:42;;;;;;;8.60;6.80;;;;;;;9.84;81.57;97811.20;110096;1248;68610;-82
2022/06/16 04:07:13;;;;;;;6.30;5.60;;;;;;;9.93;80.85;97807.42;110281;1247;59748;-78
2022/06/16 04:10:06;;;;;;;7.60;6.10;;;;;;;10.05;80.86;97810.13;110237;1247;60131;-82
2022/06/16 04:12:37;;;;;;;8.40;6.30;;;;;;;10.17;80.72;97806.61;110212;1247;70807;-80
2022/06/16 04:15:07;;;;;;;6.40;5.70;;;;;;;10.30;80.45;97809.64;110602;1247;68586;-76
2022/06/16 04:17:36;;;;;;;7.70;6.60;;;;;;;10.42;79.86;97812.14;110468;1248;68509;-80
2022/06/16 04:20:26;;;;;;;7.30;6.50;;;;;;;10.58;79.74;97815.77;110100;1246;59765;-80
2022/06/16 04:23:10;;;;;;;7.10;6.10;;;;;;;10.74;79.48;97812.64;110203;1247;59680;-79
2022/06/16 04:25:41;;;;;;;6.60;5.60;;;;;;;10.87;78.56;97810.88;110194;1248;71394;-71
2022/06/16 04:28:23;;;;;;;8.00;6.40;;;;;;;11.02;78.17;97809.55;110464;1247;67748;-77
2022/06/16 04:31:00;;;;;;;9.40;7.90;;;;;;;11.17;77.53;97808.67;110265;1247;67652;-81
2022/06/16 04:33:34;;;;;;;9.50;6.90;;;;;;;11.25;77.19;97806.36;110161;1247;59682;-79
2022/06/16 04:36:13;;;;;;;11.10;7.60;;;;;;;11.39;76.93;97806.45;110200;1247;59814;-79
2022/06/16 04:38:58;;;;;;;8.70;6.90;;;;;;;11.52;76.25;97808.86;110024;1247;70750;-80
2022/06/16 04:41:27;;;;;;;11.00;9.50;;;;;;;11.64;76.24;97809.39;110229;1246;68569;-79
2022/06/16 04:43:57;;;;;;;;;;;;;;;11.76;75.90;97813.44;110260;1247;68639;-81
2022/06/16 04:46:31;;;;;;;10.20;8.50;;;;;;;11.83;75.44;97813.98;110098;1248;59793;-80
2022/06/16 04:49:04;;;;;;;10.40;7.40;;;;;;;11.91;75.18;97809.78;110293;1247;60128;-82
2022/06/16 04:51:43;;;;;;;7.40;6.70;;;;;;;12.01;74.88;97810.59;110189;1247;71626;-80
2022/06/16 04:54:13;;;;;;;8.30;7.40;;;;;;;12.14;74.73;97807.95;110279;1247;68411;-78
2022/06/16 04:56:48;;;;;;;8.00;7.20;;;;;;;12.28;74.34;97810.92;110401;1247;69426;-79
2022/06/16 04:59:36;;;;;;;10.10;7.70;;;;;;;12.45;74.17;97811.63;110121;1247;59690;-78
2022/06/16 05:02:32;;;;;;;8.30;6.90;;;;;;;12.59;73.35;97814.20;110057;1247;59692;-71
2022/06/16 05:05:24;;;;;;;7.30;6.20;;;;;;;12.79;73.35;97814.85;110034;1247;71566;-78
2022/06/16 05:08:20;;;;;;;11.90;8.50;;;;;;;13.13;71.37;97810.16;109942;1248;68003;-76
2022/06/16 05:10:55;;;;;;;10.40;6.60;;;;;;;13.50;71.03;97811.36;110232;1247;69459;-78
2022/06/16 05:13:39;;;;;;;8.20;6.20;;;;;;;14.05;70.58;97812.55;110148;1247;59769;-78
2022/06/16 05:16:20;;;;;;;6.40;4.80;;;;;;;14.66;69.42;97810.56;110279;1247;59781;-77
2022/06/16 05:19:23;;;;;;;6.80;5.40;;;;;;;15.39;67.14;97806.49;110101;1247;70570;-77
2022/06/16 05:22:05;;;;;;;7.20;5.60;;;;;;;15.89;67.45;97813.06;110229;1247;68360;-79
2022/06/16 05:24:54;;;;;;;8.80;6.40;;;;;;;16.31;62.07;97810.05;110216;1247;68851;-77
2022/06/16 05:27:36;;;;;;;5.20;4.70;;;;;;;16.43;62.10;97812.45;110199;1246;59687;-77
2022/06/16 05:30:37;;;;;;;6.70;6.00;;;;;;;16.54;60.67;97814.04;110184;1247;59742;-77
2022/06/16 05:33:19;;;;;;;6.90;5.40;;;;;;;16.63;61.21;97818.77;110023;1248;71620;-79
2022/06/16 05:36:08;;;;;;;8.50;6.40;;;;;;;16.63;61.35;97811.04;110187;1247;68462;-77
2022/06/16 05:38:44;;;;;;;6.70;6.00;;;;;;;16.47;60.44;97812.25;110222;1247;68436;-78
2022/06/16 05:41:31;;;;;;;7.10;6.10;;;;;;;16.28;60.34;97808.73;110203;1247;59684;-76
2022/06/16 05:44:10;;;;;;;8.20;6.50;;;;;;;16.23;60.90;97807.70;110094;1247;59676;-79
2022/06/16 05:46:43;;;;;;;7.30;5.90;;;;;;;16.18;61.82;97810.64;110204;1248;70793;-74
2022/06/16 05:49:15;;;;;;;6.70;6.00;;;;;;;16.09;61.28;97812.05;110251;1246;67888;-76
2022/06/16 05:51:46;;;;;;;8.60;6.30;;;;;;;15.97;61.41;97815.13;110127;1247;69243;-77
2022/06/16 05:54:20;;;;;;;7.90;6.70;;;;;;;15.89;61.90;97816.92;110229;1247;59675;-78
2022/06/16 05:56:49;;;;;;;8.50;6.00;;;;;;;16.13;61.84;97817.64;110111;1248;59685;-78
2022/06/16 05:59:18;;;;;;;7.40;5.20;;;;;;;16.14;60.64;97813.64;109947;1250;70558;-77
2022/06/16 06:01:50;;;;;;;7.20;6.00;;;;;;;16.31;60.96;97815.80;110261;1247;68550;-78
2022/06/16 06:04:20;;;;;;;6.70;6.00;;;;;;;16.51;60.61;97815.81;110168;1247;69492;-78
2022/06/16 06:06:55;;;;;;;6.50;4.90;;;;;;;16.58;58.94;97821.16;110066;1247;59762;-78
2022/06/16 06:18:22;;;;;;;5.80;4.50;;;;;;;17.28;57.20;97821.18;110206;1247;69500;-82
2022/06/16 06:20:51;;;;;;;6.20;5.20;;;;;;;17.43;55.79;97825.11;110228;1246;59737;-81
2022/06/16 06:23:21;;;;;;;5.40;4.50;;;;;;;17.63;54.44;97821.61;110068;1248;59756;-77
2022/06/16 06:25:51;;;;;;;4.90;4.40;;;;;;;17.87;53.38;97827.59;110200;1247;70384;-77
2022/06/16 06:28:22;;;;;;;5.10;4.10;;;;;;;18.28;53.09;97824.20;110199;1247;68769;-78
2022/06/16 06:30:51;;;;;;;3.90;3.50;;;;;;;18.72;50.65;97824.41;110163;1247;69523;-77
2022/06/16 06:33:22;;;;;;;4.40;3.40;;;;;;;19.22;48.95;97821.05;110012;1250;59787;-76
2022/06/16 06:35:51;;;;;;;4.20;3.50;;;;;;;19.76;48.71;97822.33;110237;1247;59672;-75
2022/06/16 06:38:20;;;;;;;4.20;3.50;;;;;;;20.26;48.18;97826.33;110187;1247;70721;-76
2022/06/16 06:40:49;;;;;;;5.10;4.10;;;;;;;20.76;48.41;97826.47;110221;1248;68582;-77
2022/06/16 06:43:18;;;;;;;4.20;3.60;;;;;;;20.96;44.89;97826.91;110226;1247;68639;-81
2022/06/16 06:45:47;;;;;;;4.60;3.90;;;;;;;21.10;44.95;97826.32;110245;1248;59694;-79
2022/06/16 06:48:16;;;;;;;5.50;4.30;;;;;;;21.57;45.25;97824.56;110198;1247;59673;-81
2022/06/16 06:50:45;;;;;;;4.40;4.00;;;;;;;22.00;45.13;97826.96;110249;1247;72343;-79
2022/06/16 06:53:22;;;;;;;4.30;3.30;;;;;;;22.47;44.50;97823.20;110249;1248;68601;-77
2022/06/16 06:55:51;;;;;;;4.40;3.40;;;;;;;22.90;42.49;97825.52;110251;1247;68689;-75
2022/06/16 06:58:23;;;;;;;6.20;4.10;;;;;;;23.25;43.19;97819.76;110128;1247;59756;-76
2022/06/16 07:00:53;;;;;;;4.70;4.10;;;;;;;23.53;40.37;97818.27;110222;1247;59741;-77
2022/06/16 07:03:23;;;;;;;5.80;3.80;;;;;;;23.32;39.39;97817.72;110062;1247;71494;-76
2022/06/16 07:05:52;;;;;;;4.20;3.50;;;;;;;23.47;40.21;97815.77;110117;1248;68605;-80
2022/06/16 07:08:21;;;;;;;5.20;4.30;;;;;;;23.73;40.02;97818.17;110151;1249;69459;-74
2022/06/16 07:10:50;;;;;;;5.40;4.10;;;;;;;23.87;39.94;97816.27;110424;1248;58877;-76
2022/06/16 07:13:19;;;;;;;6.20;4.30;;;;;;;24.31;39.60;97814.70;110209;1247;59691;-77
2022/06/16 07:15:48;;;;;;;4.30;3.40;;;;;;;24.23;38.13;97815.09;110221;1248;71375;-77
2022/06/16 07:18:17;;;;;;;4.80;3.70;;;;;;;23.53;39.13;97807.48;110215;1247;68481;-74
2022/06/16 07:20:47;;;;;;;;;;;;;;;23.40;39.29;97809.17;110093;1248;68833;-77
2022/06/16 07:23:18;;;;;;;4.40;3.60;;;;;;;23.56;38.58;97806.88;110177;1247;59662;-76
2022/06/16 07:25:50;;;;;;;6.70;3.50;;;;;;;23.57;38.36;97805.09;109948;1248;59721;-74
2022/06/16 07:28:20;;;;;;;3.90;3.30;;;;;;;23.21;39.26;97803.97;109738;1247;729278;-76
2022/06/16 07:30:49;;;;;;;4.40;3.30;;;;;;;23.35;38.39;97804.60;110206;1247;68111;-76
2022/06/16 07:33:18;;;;;;;4.50;4.10;;;;;;;23.87;37.72;97802.19;109891;1248;69494;-76
2022/06/16 07:35:50;;;;;;;4.50;3.40;;;;;;;24.16;36.58;97802.81;110004;1249;59738;-74
2022/06/16 07:38:20;;;;;;;2.90;2.30;;;;;;;24.55;33.13;97797.24;110316;1247;59673;-75
2022/06/16 07:40:49;;;;;;;2.20;2.00;;;;;;;25.00;33.80;97792.93;110289;1247;70796;-77
2022/06/16 07:43:19;;;;;;;4.00;2.50;;;;;;;25.26;32.91;97790.33;110049;1247;67849;-76
2022/06/16 07:45:49;;;;;;;3.00;1.90;;;;;;;25.72;32.16;97787.42;110186;1247;70560;-77
2022/06/16 07:48:18;;;;;;;2.30;1.90;;;;;;;26.04;31.28;97786.13;110388;1248;59731;-76
2022/06/16 07:50:47;;;;;;;2.10;1.80;;;;;;;26.50;30.12;97786.52;110187;1249;59707;-77
2022/06/16 07:53:15;;;;;;;1.90;1.40;;;;;;;26.91;30.13;97787.48;110170;1247;71590;-76
2022/06/16 07:55:44;;;;;;;1.50;1.20;;;;;;;27.08;28.10;97787.03;110204;1247;68175;-78
2022/06/16 07:58:13;;;;;;;2.70;1.50;;;;;;;27.36;27.58;97785.80;110227;1247;69439;-78
2022/06/16 08:00:42;;;;;;;3.30;1.80;;;;;;;27.67;26.82;97783.80;110149;1248;59752;-78
2022/06/16 08:03:11;;;;;;;2.90;1.80;;;;;;;27.65;26.70;97785.80;110225;1246;60112;-77
2022/06/16 08:05:40;;;;;;;3.40;1.70;;;;;;;27.81;25.97;97786.17;110233;1247;70896;-76
2022/06/16 08:08:09;;;;;;;2.50;1.70;;;;;;;27.93;26.16;97789.73;110246;1247;68374;-78
2022/06/16 08:10:38;;;;;;;1.50;1.40;;;;;;;27.80;24.55;97789.80;110207;1247;69678;-78
2022/06/16 08:13:08;;;;;;;1.40;1.30;;;;;;;27.80;26.40;97790.59;109938;1247;60182;-79
2022/06/16 08:15:37;;;;;;;3.10;1.60;;;;;;;27.91;25.25;97795.67;110195;1248;59619;-77
2022/06/16 08:18:08;;;;;;;3.60;1.70;;;;;;;28.06;25.33;97791.16;110266;1248;71528;-77
2022/06/16 08:20:37;;;;;;;2.80;1.40;;;;;;;28.05;25.18;97794.52;110200;1248;66895;-77
2022/06/16 08:23:05;;;;;;;3.70;1.40;;;;;;;28.47;25.44;97796.08;110257;1248;69736;-77
2022/06/16 08:25:34;;;;;;;1.90;1.30;;;;;;;28.59;24.06;97794.56;110212;1247;59684;-77
2022/06/16 08:28:06;;;;;;;1.60;1.50;;;;;;;28.79;24.69;97791.08;110245;1247;59687;-78
2022/06/16 08:30:37;;;;;;;4.10;1.90;;;;;;;28.89;23.91;97796.11;110209;1248;70942;-79
2022/06/16 08:33:09;;;;;;;2.90;1.50;;;;;;;29.02;24.94;97792.42;110282;1248;66813;-79
2022/06/16 08:35:38;;;;;;;2.70;1.60;;;;;;;29.25;25.10;97792.59;110454;1247;68646;-79
2022/06/16 08:38:07;;;;;;;;;;;;;;;29.50;24.57;97789.40;110245;1247;59689;-79
2022/06/16 08:40:42;;;;;;;2.50;1.50;;;;;;;29.64;23.83;97787.23;110181;1247;59756;-79
2022/06/16 08:43:29;;;;;;;1.60;1.40;;;;;;;28.51;22.52;97785.27;110223;1247;71552;-78
2022/06/16 08:46:01;;;;;;;2.20;1.50;;;;;;;29.42;23.32;97779.57;110079;1247;68385;-74
2022/06/16 08:48:45;;;;;;;2.70;1.60;;;;;;;29.50;23.66;97783.89;110294;1247;67689;-78
2022/06/16 08:51:48;;;;;;;1.30;1.20;;;;;;;29.34;22.97;97777.17;110312;1246;59763;-77
2022/06/16 08:54:42;;;;;;;2.40;1.40;;;;;;;29.22;22.10;97779.21;110276;1248;59675;-79
2022/06/16 08:57:36;;;;;;;1.80;1.30;;;;;;;29.60;21.87;97780.65;110283;1247;70826;-76
2022/06/16 09:00:09;;;;;;;2.10;1.50;;;;;;;29.43;21.83;97773.36;110163;1248;68613;-78
2022/06/16 09:03:06;;;;;;;2.30;1.50;;;;;;;29.73;21.24;97770.16;110126;1248;70775;-78
2022/06/16 09:06:04;;;;;;;1.70;1.10;;;;;;;29.79;22.05;97763.88;110201;1247;60135;-76
2022/06/16 09:08:52;;;;;;;1.60;1.40;;;;;;;29.87;22.36;97760.54;110019;1248;59718;-77
2022/06/16 09:11:48;;;;;;;3.10;1.80;;;;;;;30.01;22.09;97762.56;110249;1248;71597;-76
2022/06/16 09:17:59;;;;;;;2.20;1.90;;;;;;;29.90;21.90;97756.38;110212;1247;70105;-75
2022/06/16 09:20:42;;;;;;;2.40;1.70;;;;;;;30.36;21.82;97755.20;110239;1248;59750;-78
2022/06/16 09:23:48;;;;;;;2.50;1.60;;;;;;;30.49;20.44;97753.23;110151;1248;59630;-75
2022/06/16 09:26:20;;;;;;;2.00;1.50;;;;;;;29.97;21.13;97751.65;110190;1248;72167;-77
2022/06/16 09:29:00;;;;;;;1.90;1.40;;;;;;;29.70;22.73;97753.03;110158;1250;68549;-78
2022/06/16 09:31:57;;;;;;;1.50;1.40;;;;;;;29.82;22.64;97754.19;110043;1250;69863;-74
2022/06/16 09:34:34;;;;;;;2.10;1.40;;;;;;;30.16;23.04;97749.17;110229;1248;59735;-76
2022/06/16 09:37:13;;;;;;;1.90;1.30;;;;;;;30.53;22.81;97747.79;110205;1247;59664;-77
2022/06/16 09:39:58;;;;;;;2.90;1.70;;;;;;;30.90;22.54;97748.06;110180;1247;72684;-75
2022/06/16 09:42:35;;;;;;;1.90;1.60;;;;;;;31.21;22.10;97740.01;110143;1247;68265;-76
2022/06/16 09:45:24;;;;;;;1.70;1.50;;;;;;;31.14;22.52;97741.08;110310;1247;68625;-76
2022/06/16 09:47:57;;;;;;;;;;;;;;;31.38;22.60;97736.41;109866;1250;59731;-75
2022/06/16 09:50:46;;;;;;;2.90;1.60;;;;;;;31.34;22.07;97734.64;110212;1248;59670;-76
2022/06/16 09:53:27;;;;;;;2.60;1.90;;;;;;;31.17;22.87;97735.41;110129;1247;71978;-75
2022/06/16 09:56:26;;;;;;;3.10;1.60;;;;;;;31.13;21.67;97736.32;109939;1250;68490;-74
2022/06/16 09:59:01;;;;;;;;;;;;;;;30.42;21.10;97736.13;110255;1249;69540;-75
2022/06/16 10:01:35;;;;;;;2.90;2.00;;;;;;;30.16;22.22;97736.52;110205;1250;59763;-76
2022/06/16 10:04:07;;;;;;;2.30;1.50;;;;;;;29.84;23.41;97730.55;109856;1250;59693;-77
2022/06/16 10:06:53;;;;;;;2.20;1.50;;;;;;;29.91;23.16;97734.03;110202;1247;72654;-76
2022/06/16 10:09:30;;;;;;;2.70;1.90;;;;;;;30.08;22.93;97737.34;110212;1247;68550;-75
2022/06/16 10:12:27;;;;;;;2.30;1.80;;;;;;;29.97;22.26;97735.44;110142;1247;69519;-74
2022/06/16 10:15:05;;;;;;;1.90;1.50;;;;;;;30.05;22.37;97736.52;110143;1250;59682;-75
2022/06/16 10:17:36;;;;;;;2.90;1.60;;;;;;;30.00;23.40;97735.29;110247;1248;59734;-75
2022/06/16 10:20:06;;;;;;;2.30;1.70;;;;;;;29.99;24.08;97732.80;110052;1247;71497;-74
2022/06/16 10:22:39;;;;;;;2.50;1.60;;;;;;;30.11;23.99;97736.96;110158;1248;68576;-73
2022/06/16 10:25:32;;;;;;;2.30;1.70;;;;;;;30.00;23.58;97729.15;110162;1247;68745;-75
2022/06/16 10:28:29;;;;;;;2.20;1.70;;;;;;;29.70;23.88;97729.64;109990;1250;59739;-73
2022/06/16 10:31:01;;;;;;;3.80;1.90;;;;;;;29.73;22.27;97726.35;110207;1248;59650;-76
2022/06/16 10:33:36;;;;;;;2.50;2.00;;;;;;;29.78;24.35;97723.77;110035;1248;71548;-75
2022/06/16 10:36:18;;;;;;;3.30;2.00;;;;;;;29.60;22.34;97723.30;110216;1247;68713;-78
2022/06/16 10:39:22;;;;;;;3.80;2.20;;;;;;;29.50;23.67;97726.59;110222;1247;68505;-76
2022/06/16 10:41:54;;;;;;;2.80;1.70;;;;;;;29.32;22.35;97719.32;110134;1250;59688;-75
2022/06/16 10:44:27;;;;;;;2.20;1.70;;;;;;;29.57;21.91;97714.98;110073;1250;59696;-75
2022/06/16 10:47:02;;;;;;;2.30;1.90;;;;;;;29.25;22.23;97709.05;110201;1248;71551;-76
2022/06/16 10:49:34;;;;;;;4.80;2.00;;;;;;;29.35;23.66;97708.38;109945;1249;68400;-77
2022/06/16 10:52:14;;;;;;;2.20;1.90;;;;;;;29.22;23.62;97711.20;109906;1250;69573;-75
2022/06/16 10:54:56;;;;;;;1.90;1.70;;;;;;;29.25;24.24;97710.05;110203;1250;59691;-74
2022/06/16 10:57:29;;;;;;;1.70;1.60;;;;;;;29.05;24.17;97708.23;110227;1248;59762;-77
2022/06/16 11:00:13;;;;;;;2.70;1.60;;;;;;;28.34;23.38;97705.66;110200;1247;70985;-77
2022/06/16 11:03:06;;;;;;;2.70;1.70;;;;;;;28.32;24.35;97705.52;110202;1247;67610;-76
2022/06/16 11:05:48;;;;;;;2.70;1.90;;;;;;;28.50;23.52;97702.55;110155;1247;68543;-75
2022/06/16 11:08:17;;;;;;;2.90;1.90;;;;;;;28.62;24.54;97703.83;110057;1250;59694;-77
2022/06/16 11:11:09;;;;;;;2.40;2.10;;;;;;;28.79;23.62;97695.27;110069;1250;59702;-75
2022/06/16 11:13:49;;;;;;;2.60;1.80;;;;;;;28.78;23.48;97696.48;110212;1248;72216;-75
2022/06/16 11:16:37;;;;;;;2.40;1.70;;;;;;;28.65;24.32;97693.54;110321;1248;67955;-75
2022/06/16 11:19:10;;;;;;;2.60;1.90;;;;;;;28.81;24.02;97688.89;110138;1250;69620;-76
2022/06/16 11:21:45;;;;;;;3.50;2.10;;;;;;;28.80;23.93;97682.20;109782;1251;59703;-75
2022/06/16 11:24:28;;;;;;;3.00;2.00;;;;;;;28.73;24.97;97679.86;110148;1250;60061;-76
2022/06/16 11:27:15;;;;;;;1.70;1.30;;;;;;;28.93;24.79;97680.38;110085;1250;71536;-74
2022/06/16 11:29:45;;;;;;;1.90;1.60;;;;;;;29.24;24.76;97679.79;110231;1248;68654;-76
2022/06/16 11:32:23;;;;;;;2.40;1.80;;;;;;;29.16;23.70;97673.79;110093;1247;69589;-72
2022/06/16 11:34:53;;;;;;;2.20;1.60;;;;;;;28.83;23.87;97677.11;110143;1248;59702;-75
2022/06/16 11:37:31;;;;;;;2.50;1.50;;;;;;;28.66;23.83;97676.36;110132;1248;59694;-73
2022/06/16 11:40:38;;;;;;;2.50;1.40;;;;;;;28.59;24.52;97675.97;110212;1247;71581;-74
2022/06/16 11:43:40;;;;;;;3.70;1.60;;;;;;;28.79;25.01;97679.63;109455;1256;68591;-74
2022/06/16 11:46:30;;;;;;;1.80;1.30;;;;;;;29.00;24.62;97676.15;109458;1256;68250;-76
2022/06/16 11:49:09;;;;;;;1.80;1.70;;;;;;;29.11;23.27;97673.48;109588;1254;59816;-75
2022/06/16 11:51:59;;;;;;;;;;;;;;;29.36;24.20;97670.78;109632;1254;59691;-76
2022/06/16 11:54:48;;;;;;;2.40;1.90;;;;;;;29.50;22.89;97665.40;109489;1258;71401;-75
2022/06/16 11:57:24;;;;;;;2.10;1.60;;;;;;;29.54;24.12;97664.66;109516;1256;68610;-76
2022/06/16 12:00:13;;;;;;;4.40;2.00;;;;;;;29.74;23.73;97662.23;109427;1257;70132;-75
2022/06/16 12:03:05;;;;;;;2.80;1.70;;;;;;;29.80;22.98;97656.35;109495;1257;59690;-73
2022/06/16 12:05:51;;;;;;;3.10;2.20;;;;;;;29.90;22.86;97656.45;109521;1256;59716;-75
2022/06/16 12:08:38;;;;;;;1.80;1.50;;;;;;;29.97;22.82;97649.73;109528;1256;71673;-76
2022/06/16 12:11:11;;;;;;;2.30;1.80;;;;;;;29.90;21.67;97650.36;109455;1256;67805;-73
2022/06/16 12:13:58;;;;;;;1.30;1.20;;;;;;;29.93;21.91;97648.06;109485;1250;69597;-75
2022/06/16 12:16:37;;;;;;;2.30;1.50;;;;;;;29.85;21.92;97652.98;109870;1250;59764;-74
2022/06/16 12:19:32;;;;;;;2.30;1.60;;;;;;;29.87;22.28;97646.65;110039;1247;59751;-76
2022/06/16 12:22:10;;;;;;;2.70;1.40;;;;;;;29.57;21.94;97643.19;109879;1251;72115;-76
2022/06/16 12:24:51;;;;;;;2.00;1.60;;;;;;;29.32;22.74;97645.40;110002;1250;69143;-73
2022/06/16 12:27:40;;;;;;;2.10;1.80;;;;;;;29.43;23.26;97645.76;110178;1248;68778;-73
2022/06/16 12:30:18;;;;;;;2.10;1.60;;;;;;;29.17;22.90;97635.80;110028;1250;59711;-75
2022/06/16 12:33:05;;;;;;;2.30;1.70;;;;;;;29.08;23.03;97631.77;110269;1250;59705;-76